createdAt,value
2019-02-10T00:00:11.221Z,73.30
2019-02-10T00:05:13.025Z,66.83
2019-02-10T00:10:14.996Z,67.10
2019-02-10T00:15:16.970Z,75.20
2019-02-10T00:20:18.981Z,57.87
2019-02-10T00:25:20.745Z,61.87
2019-02-10T00:30:22.745Z,75.13
2019-02-10T00:35:25.736Z,56.10
2019-02-10T00:40:28.205Z,79.43
2019-02-10T00:45:31.445Z,71.03
2019-02-10T00:50:33.662Z,64.83
2019-02-10T00:55:39.085Z,72.43
2019-02-10T01:00:44.718Z,64.03
2019-02-10T01:05:47.875Z,65.33
2019-02-10T01:10:49.680Z,59.33
2019-02-10T01:15:51.481Z,61.70
2019-02-10T01:20:53.183Z,87.43
2019-02-10T01:25:54.888Z,53.13
2019-02-10T01:30:56.818Z,75.10
2019-02-10T01:35:59.314Z,95.77
2019-02-10T01:41:01.321Z,79.13
2019-02-10T01:46:03.128Z,59.63
2019-02-10T01:51:04.878Z,52.37
2019-02-10T01:56:07.890Z,66.00
2019-02-10T02:01:10.074Z,76.27
2019-02-10T02:06:12.278Z,53.53
2019-02-10T02:11:14.243Z,79.33
2019-02-10T02:16:16.505Z,89.93
2019-02-10T02:21:19.847Z,67.70
2019-02-10T02:26:23.625Z,57.97
2019-02-10T02:31:25.392Z,90.53
2019-02-10T02:36:27.911Z,90.27
2019-02-10T02:41:30.960Z,72.73
2019-02-10T02:46:33.156Z,95.73
2019-02-10T02:51:34.960Z,84.30
2019-02-10T02:56:37.013Z,93.30
2019-02-10T03:01:40.825Z,52.43
2019-02-10T03:06:45.710Z,96.70
2019-02-10T03:11:49.450Z,82.83
2019-02-10T03:16:52.993Z,59.93
2019-02-10T03:21:55.143Z,51.40
2019-02-10T03:26:57.012Z,75.10
2019-02-10T03:31:58.819Z,77.93
2019-02-10T03:37:01.327Z,67.83
2019-02-10T03:42:03.039Z,77.97
2019-02-10T03:47:08.240Z,81.80
2019-02-10T03:52:11.859Z,68.47
2019-02-10T03:57:16.223Z,63.83
2019-02-10T04:02:17.977Z,76.10
2019-02-10T04:07:19.938Z,69.93
2019-02-10T04:12:22.139Z,72.63
2019-02-10T04:17:24.472Z,45.77
2019-02-10T04:22:26.255Z,102.67
2019-02-10T04:27:28.055Z,53.90
2019-02-10T04:32:29.855Z,42.67
2019-02-10T04:37:32.982Z,57.73
2019-02-10T04:42:34.815Z,54.33
2019-02-10T04:47:36.680Z,67.17
2019-02-10T04:52:39.984Z,60.60
2019-02-10T04:57:41.772Z,38.07
2019-02-10T05:02:43.830Z,57.47
2019-02-10T05:07:54.092Z,40.47
2019-02-10T05:12:49.683Z,57.03
2019-02-10T05:17:51.698Z,67.93
2019-02-10T05:22:53.441Z,42.83
2019-02-10T05:27:55.595Z,28.10
2019-02-10T05:32:57.702Z,50.70
2019-02-10T05:38:04.270Z,45.03
2019-02-10T05:43:04.176Z,22.10
2019-02-10T05:48:05.942Z,63.90
2019-02-10T05:53:07.684Z,38.67
2019-02-10T05:58:09.449Z,32.97
2019-02-10T06:03:11.280Z,36.50
2019-02-10T06:08:13.780Z,19.53
2019-02-10T06:13:15.714Z,32.60
2019-02-10T06:18:17.404Z,25.77
2019-02-10T06:23:19.206Z,24.23
2019-02-10T06:28:21.346Z,22.87
2019-02-10T06:33:23.122Z,36.00
2019-02-10T06:38:26.089Z,38.97
2019-02-10T06:43:27.754Z,26.87
2019-02-10T06:48:30.386Z,25.00
2019-02-10T06:53:32.178Z,19.53
2019-02-10T06:58:35.651Z,21.03
2019-02-10T07:03:45.783Z,27.13
2019-02-10T07:08:47.477Z,29.13
2019-02-10T07:13:52.274Z,7.97
2019-02-10T07:19:33.786Z,19.73
2019-02-10T07:24:42.216Z,28.53
2019-02-10T07:30:06.342Z,24.67
2019-02-10T07:35:34.680Z,19.60
2019-02-10T07:40:45.146Z,16.63
2019-02-10T07:46:03.083Z,36.43
2019-02-10T07:51:29.262Z,16.17
2019-02-10T07:56:46.731Z,20.47
2019-02-10T08:02:01.344Z,23.00
2019-02-10T08:07:06.620Z,19.27
2019-02-10T08:12:48.297Z,25.87
2019-02-10T08:17:56.736Z,17.20
2019-02-10T08:23:11.318Z,32.37
2019-02-10T08:28:19.895Z,16.90
2019-02-10T08:33:25.289Z,23.80
2019-02-10T08:38:38.220Z,18.87
2019-02-10T08:43:52.547Z,23.03
2019-02-10T08:49:01.558Z,24.30
2019-02-10T08:54:03.836Z,18.60
2019-02-10T08:59:07.197Z,2.43
2019-02-10T09:04:09.088Z,26.40
2019-02-10T09:09:10.884Z,29.73
2019-02-10T09:14:13.734Z,24.57
2019-02-10T09:19:15.486Z,12.33
2019-02-10T09:24:17.308Z,20.93
2019-02-10T09:29:19.054Z,11.30
2019-02-10T09:34:21.328Z,12.17
2019-02-10T09:39:23.077Z,19.53
2019-02-10T09:44:24.875Z,10.00
2019-02-10T09:49:26.731Z,14.80
2019-02-10T09:54:28.533Z,14.77
2019-02-10T09:59:30.333Z,23.87
2019-02-10T10:04:32.136Z,12.87
2019-02-10T10:09:33.934Z,22.60
2019-02-10T10:14:35.685Z,9.63
2019-02-10T10:19:37.844Z,9.50
2019-02-10T10:24:39.644Z,11.63
2019-02-10T10:29:41.441Z,7.33
2019-02-10T10:34:43.243Z,5.77
2019-02-10T10:39:45.007Z,22.47
2019-02-10T10:44:46.847Z,11.03
2019-02-10T10:49:48.827Z,8.67
2019-02-10T10:54:50.654Z,10.63
2019-02-10T10:59:52.512Z,11.77
2019-02-10T11:04:54.313Z,13.73
2019-02-10T11:09:56.054Z,4.33
2019-02-10T11:14:58.508Z,3.73
2019-02-10T11:20:00.724Z,10.60
2019-02-10T11:25:03.777Z,9.47
2019-02-10T11:30:14.177Z,6.30
2019-02-10T11:35:15.988Z,11.10
2019-02-10T11:40:17.753Z,6.13
2019-02-10T11:45:19.708Z,18.60
2019-02-10T11:50:22.900Z,5.33
2019-02-10T11:55:24.970Z,5.70
2019-02-10T12:00:26.844Z,8.90
2019-02-10T12:05:37.354Z,8.10
2019-02-10T12:10:43.505Z,18.57
2019-02-10T12:15:45.899Z,4.17
2019-02-10T12:20:47.793Z,10.90
2019-02-10T12:25:50.673Z,9.30
2019-02-10T12:30:52.947Z,11.40
2019-02-10T12:35:58.433Z,8.20
2019-02-10T12:40:59.297Z,6.67
2019-02-10T12:46:01.142Z,10.13
2019-02-10T12:51:02.908Z,5.70
2019-02-10T12:56:05.101Z,6.50
2019-02-10T13:01:07.629Z,5.23
2019-02-10T13:06:10.007Z,3.20
2019-02-10T13:11:11.740Z,5.90
2019-02-10T13:16:13.847Z,4.50
2019-02-10T13:21:15.660Z,9.47
2019-02-10T13:26:17.461Z,10.50
2019-02-10T13:31:19.284Z,10.10
2019-02-10T13:36:21.031Z,6.43
2019-02-10T13:41:23.527Z,5.50
2019-02-10T13:46:25.456Z,5.03
2019-02-10T13:51:27.267Z,2.80
2019-02-10T13:56:29.064Z,12.80
2019-02-10T14:01:30.863Z,9.13
2019-02-10T14:06:32.662Z,5.53
2019-02-10T14:11:34.552Z,9.07
2019-02-10T14:16:36.865Z,3.67
2019-02-10T14:21:42.260Z,3.23
2019-02-10T14:26:44.568Z,4.67
2019-02-10T14:31:46.572Z,4.90
2019-02-10T14:36:48.575Z,3.70
2019-02-10T14:41:50.984Z,14.83
2019-02-10T14:46:52.989Z,2.97
2019-02-10T14:51:54.938Z,2.87
2019-02-10T14:56:58.644Z,8.27
2019-02-10T15:02:00.476Z,5.33
2019-02-10T15:07:02.358Z,7.03
2019-02-10T15:12:04.667Z,2.37
2019-02-10T15:17:06.568Z,7.10
2019-02-10T15:22:08.466Z,2.27
2019-02-10T15:27:10.486Z,4.00
2019-02-10T15:32:16.859Z,2.37
2019-02-10T15:37:16.336Z,2.17
2019-02-10T15:42:18.115Z,3.30
2019-02-10T15:47:20.431Z,6.90
2019-02-10T15:52:22.402Z,9.93
2019-02-10T15:57:24.716Z,4.60
2019-02-10T16:02:28.098Z,5.70
2019-02-10T16:07:30.024Z,12.23
2019-02-10T16:12:31.972Z,3.80
2019-02-10T16:17:33.984Z,8.03
2019-02-10T16:22:36.714Z,2.07
2019-02-10T16:27:38.764Z,15.97
2019-02-10T16:32:40.738Z,12.70
2019-02-10T16:37:42.732Z,8.80
2019-02-10T16:42:47.521Z,2.93
2019-02-10T16:47:54.626Z,2.93
2019-02-10T16:52:56.627Z,1.70
2019-02-10T16:57:58.538Z,7.20
2019-02-10T17:03:00.536Z,1.30
2019-02-10T17:08:02.559Z,19.00
2019-02-10T17:13:04.848Z,9.37
2019-02-10T17:18:06.808Z,7.70
2019-02-10T17:23:09.069Z,2.60
2019-02-10T17:28:10.874Z,2.10
2019-02-10T17:33:12.888Z,4.20
2019-02-10T17:38:15.223Z,2.30
2019-02-10T17:43:17.303Z,6.30
2019-02-10T17:48:20.305Z,3.03
2019-02-10T17:53:22.336Z,1.73
2019-02-10T17:58:26.261Z,2.57
2019-02-10T18:03:28.289Z,7.87
2019-02-10T18:08:30.307Z,7.30
2019-02-10T18:13:32.510Z,6.30
2019-02-10T18:18:48.143Z,3.93
2019-02-10T18:24:04.094Z,6.83
2019-02-10T18:29:24.983Z,4.23
2019-02-10T18:34:32.175Z,4.57
2019-02-10T18:39:38.685Z,6.17
2019-02-10T18:44:52.855Z,8.97
2019-02-10T18:50:01.026Z,12.40
2019-02-10T18:55:16.518Z,10.57
2019-02-10T19:00:38.121Z,19.30
2019-02-10T19:05:54.128Z,21.03
2019-02-10T19:10:58.040Z,21.77
2019-02-10T19:16:02.330Z,12.03
2019-02-10T19:21:06.589Z,18.10
2019-02-10T19:26:27.137Z,30.37
2019-02-10T19:31:43.172Z,24.50
2019-02-10T19:36:47.426Z,46.13
2019-02-10T19:42:03.258Z,64.63
2019-02-10T19:47:07.322Z,70.97
2019-02-10T19:52:12.899Z,79.00
2019-02-10T19:57:17.852Z,88.57
2019-02-10T20:02:22.091Z,89.17
2019-02-10T20:07:26.034Z,99.70
2019-02-10T20:12:30.253Z,99.57
2019-02-10T20:17:50.680Z,100.57
2019-02-10T20:23:11.494Z,94.03
2019-02-10T20:28:20.822Z,80.60
2019-02-10T20:33:41.206Z,83.13
2019-02-10T20:38:44.768Z,74.40
2019-02-10T20:43:48.449Z,117.40
2019-02-10T20:49:05.040Z,113.13
2019-02-10T20:54:08.744Z,72.20
2019-02-10T20:59:12.474Z,67.40
2019-02-10T21:04:18.838Z,90.23
2019-02-10T21:09:25.129Z,75.07
2019-02-10T21:14:47.106Z,91.97
2019-02-10T21:20:08.857Z,58.40
2019-02-10T21:25:21.706Z,89.13
2019-02-10T21:30:41.795Z,89.63
2019-02-10T21:35:51.515Z,75.07
2019-02-10T21:41:11.748Z,82.23
2019-02-10T21:46:15.280Z,69.93
2019-02-10T21:51:16.971Z,86.93
2019-02-10T21:56:18.854Z,73.97
2019-02-10T22:01:20.521Z,88.67
2019-02-10T22:06:22.214Z,70.50
2019-02-10T22:11:24.405Z,48.57
2019-02-10T22:16:26.071Z,82.70
2019-02-10T22:21:28.118Z,57.87
2019-02-10T22:26:29.781Z,44.50
2019-02-10T22:31:31.501Z,48.63
2019-02-10T22:36:33.551Z,48.10
2019-02-10T22:41:36.583Z,44.00
2019-02-10T22:46:38.839Z,33.70
2019-02-10T22:51:42.736Z,22.23
2019-02-10T22:56:44.585Z,43.27
2019-02-10T23:01:46.330Z,45.37
2019-02-10T23:06:48.094Z,43.47
2019-02-10T23:11:49.936Z,42.13
2019-02-10T23:16:52.396Z,22.57
2019-02-10T23:21:54.474Z,40.93
2019-02-10T23:26:56.209Z,23.77
2019-02-10T23:31:58.619Z,17.73
2019-02-10T23:37:00.328Z,22.10
2019-02-10T23:42:02.012Z,14.53
2019-02-10T23:47:03.712Z,18.40
2019-02-10T23:52:05.514Z,11.80
2019-02-10T23:57:07.217Z,8.27
